Time;durP1;ratioP1;P1;durP2;ratioP2;P2;SDS_P1;SDS_P2;PMS_P1;PMS_P2;Temp;Humidity;BMP_temperature;BMP_pressure;BME280_temperature;BME280_humidity;BME280_pressure;Samples;Min_cycle;Max_cycle;Signal;HPM_P1;HPM_P2
2023/05/22 00:01:36;;;;;;;9.90;5.60;;;;;;;11.10;91.89;97366.50;110218;1241;70413;-75
2023/05/22 00:04:07;;;;;;;7.60;4.80;;;;;;;11.09;91.46;97367.60;110192;1242;69287;-75
2023/05/22 00:06:44;;;;;;;8.40;5.10;;;;;;;11.07;90.69;97367.71;110189;1241;68630;-74
2023/05/22 00:09:14;;;;;;;5.20;4.30;;;;;;;11.01;91.60;97362.60;110176;1240;59743;-75
2023/05/22 00:11:45;;;;;;;7.30;5.00;;;;;;;11.01;91.46;97361.25;110215;1242;59685;-75
2023/05/22 00:14:15;;;;;;;;;;;;;;;11.02;91.01;97358.20;110199;1242;71317;-75
2023/05/22 00:16:47;;;;;;;6.00;4.90;;;;;;;11.04;89.48;97358.23;110229;1241;69103;-74
2023/05/22 00:19:17;;;;;;;6.60;5.10;;;;;;;11.03;89.11;97356.72;110233;1241;69294;-74
2023/05/22 00:21:50;;;;;;;7.80;5.80;;;;;;;11.01;90.05;97358.43;110157;1243;59721;-73
2023/05/22 00:24:20;;;;;;;6.50;4.70;;;;;;;10.96;91.10;97359.70;110173;1242;59659;-74
2023/05/22 00:26:52;;;;;;;5.50;4.80;;;;;;;10.90;91.06;97359.28;110203;1242;71371;-74
2023/05/22 00:29:22;;;;;;;6.40;4.60;;;;;;;10.84;93.08;97354.10;110205;1241;68474;-75
2023/05/22 00:31:55;;;;;;;5.30;4.40;;;;;;;10.81;91.94;97357.14;110108;1241;70064;-74
2023/05/22 00:34:25;;;;;;;6.60;5.80;;;;;;;10.78;91.78;97360.20;110217;1241;59748;-74
2023/05/22 00:36:56;;;;;;;5.80;4.30;;;;;;;10.75;90.23;97365.63;110116;1243;59634;-73
2023/05/22 00:39:26;;;;;;;8.60;5.00;;;;;;;10.70;90.11;97366.51;110174;1242;71414;-75
2023/05/22 00:41:58;;;;;;;5.40;4.50;;;;;;;10.65;90.36;97363.23;110204;1240;69198;-75
2023/05/22 00:44:30;;;;;;;7.70;5.70;;;;;;;10.61;94.15;97365.42;110182;1242;68978;-75
2023/05/22 00:47:01;;;;;;;6.10;4.90;;;;;;;10.56;96.74;97367.57;110087;1240;59750;-74
2023/05/22 00:49:32;;;;;;;6.80;5.00;;;;;;;10.50;96.88;97360.16;110239;1242;59682;-74
2023/05/22 00:52:03;;;;;;;6.20;4.70;;;;;;;10.44;96.31;97355.86;110216;1242;70652;-73
2023/05/22 00:54:35;;;;;;;6.50;4.60;;;;;;;10.42;92.91;97356.89;110245;1241;68135;-74
2023/05/22 00:57:10;;;;;;;5.70;5.00;;;;;;;10.41;92.28;97358.04;110109;1241;68960;-74
2023/05/22 00:59:41;;;;;;;5.70;4.80;;;;;;;10.40;92.15;97355.45;110233;1240;59732;-74
2023/05/22 01:02:15;;;;;;;5.70;4.40;;;;;;;10.40;92.81;97358.61;110198;1242;59685;-75
2023/05/22 01:04:49;;;;;;;5.80;4.30;;;;;;;10.38;91.46;97355.25;110216;1242;71708;-75
2023/05/22 01:07:22;;;;;;;5.10;4.30;;;;;;;10.37;91.64;97357.27;110209;1241;69371;-73
2023/05/22 01:09:58;;;;;;;6.80;4.40;;;;;;;10.35;91.88;97356.90;110230;1241;69118;-74
2023/05/22 01:12:52;;;;;;;5.40;3.80;;;;;;;10.33;92.28;97354.98;110206;1240;59721;-74
2023/05/22 01:15:59;;;;;;;4.30;3.70;;;;;;;10.31;91.68;97358.03;110215;1241;59750;-74
2023/05/22 01:19:11;;;;;;;6.10;4.80;;;;;;;10.30;90.70;97356.95;109914;1240;71379;-75
2023/05/22 01:21:58;;;;;;;4.50;4.10;;;;;;;10.25;93.62;97358.27;110199;1241;68333;-73
2023/05/22 01:24:57;;;;;;;4.50;3.30;;;;;;;10.19;93.44;97354.20;110206;1242;68304;-74
2023/05/22 01:27:33;;;;;;;5.60;4.00;;;;;;;10.12;91.04;97344.92;110200;1242;59694;-74
2023/05/22 01:30:04;;;;;;;5.80;4.80;;;;;;;10.04;95.14;97348.09;110259;1242;59688;-73
2023/05/22 01:32:37;;;;;;;5.50;4.40;;;;;;;9.97;96.82;97344.27;110197;1240;70605;-74
2023/05/22 01:35:10;;;;;;;6.60;5.20;;;;;;;9.88;93.13;97346.83;110094;1244;68474;-74
2023/05/22 01:37:42;;;;;;;5.50;4.70;;;;;;;9.79;96.35;97354.80;110248;1242;69273;-73
2023/05/22 01:40:14;;;;;;;5.80;4.20;;;;;;;9.69;98.25;97355.45;110205;1242;59689;-73
2023/05/22 01:42:46;;;;;;;6.10;4.70;;;;;;;9.61;96.99;97353.23;110145;1240;59750;-74
2023/05/22 01:45:18;;;;;;;6.60;4.40;;;;;;;9.54;98.29;97353.57;110222;1242;70754;-74
2023/05/22 01:47:50;;;;;;;6.10;4.00;;;;;;;9.47;99.65;97355.79;110162;1244;69287;-73
2023/05/22 01:50:20;;;;;;;5.80;4.40;;;;;;;9.41;98.45;97357.39;110226;1241;68648;-75
2023/05/22 01:53:17;;;;;;;5.10;4.10;;;;;;;9.37;94.72;97355.80;110211;1241;59722;-74
2023/05/22 01:55:55;;;;;;;6.70;3.90;;;;;;;9.31;95.11;97353.56;110165;1241;59669;-73
2023/05/22 01:58:25;;;;;;;4.90;3.60;;;;;;;9.27;96.23;97357.86;110166;1243;71449;-74
2023/05/22 02:00:59;;;;;;;4.50;3.60;;;;;;;9.23;93.96;97356.04;110175;1242;69092;-74
2023/05/22 02:03:32;;;;;;;5.70;4.90;;;;;;;9.21;94.74;97356.89;110205;1242;68674;-74
2023/05/22 02:06:06;;;;;;;6.30;5.40;;;;;;;9.17;96.67;97357.00;110191;1240;59680;-74
2023/05/22 02:08:38;;;;;;;7.20;5.20;;;;;;;9.12;96.16;97360.10;110179;1244;60091;-74
2023/05/22 02:11:12;;;;;;;5.00;4.30;;;;;;;9.08;95.73;97356.34;110255;1241;72020;-74
2023/05/22 02:13:43;;;;;;;6.40;5.00;;;;;;;9.07;97.10;97360.61;110141;1243;67793;-74
2023/05/22 02:16:15;;;;;;;9.50;7.30;;;;;;;9.08;96.73;97359.52;110175;1242;68495;-74
2023/05/22 02:18:50;;;;;;;7.40;5.70;;;;;;;9.05;97.10;97359.70;110138;1243;59698;-75
2023/05/22 02:21:21;;;;;;;6.80;4.80;;;;;;;9.01;97.22;97359.83;110271;1242;59716;-75
2023/05/22 02:23:52;;;;;;;5.80;5.10;;;;;;;8.97;98.68;97362.35;110204;1242;70690;-75
2023/05/22 02:26:22;;;;;;;6.20;4.70;;;;;;;8.93;100.00;97362.79;110198;1241;69204;-75
2023/05/22 02:28:54;;;;;;;6.40;5.80;;;;;;;8.90;100.00;97360.86;110103;1240;69554;-74
2023/05/22 02:31:27;;;;;;;5.40;4.10;;;;;;;8.87;100.00;97359.82;110093;1244;59738;-73
2023/05/22 02:33:58;;;;;;;5.50;4.20;;;;;;;8.87;99.82;97361.61;110164;1241;59698;-75
2023/05/22 02:36:32;;;;;;;4.60;4.10;;;;;;;8.86;98.80;97363.60;110123;1241;71406;-74
2023/05/22 02:39:04;;;;;;;5.70;4.30;;;;;;;8.84;98.22;97361.13;110229;1244;69250;-75
2023/05/22 02:41:35;;;;;;;8.10;4.90;;;;;;;8.82;98.16;97359.48;110238;1242;69179;-75
2023/05/22 02:44:05;;;;;;;5.30;4.20;;;;;;;8.79;98.26;97360.58;110159;1245;59769;-74
2023/05/22 02:46:37;;;;;;;5.10;4.40;;;;;;;8.75;98.97;97359.08;110172;1241;59717;-74
2023/05/22 02:49:11;;;;;;;7.00;4.60;;;;;;;8.72;99.98;97358.77;110137;1245;71287;-76
2023/05/22 02:51:46;;;;;;;6.00;4.30;;;;;;;8.70;100.00;97355.83;110153;1240;68509;-75
2023/05/22 02:54:17;;;;;;;8.20;4.80;;;;;;;8.68;100.00;97358.16;110204;1241;69321;-75
2023/05/22 02:56:47;;;;;;;6.60;4.70;;;;;;;8.65;100.00;97358.70;110152;1243;59718;-75
2023/05/22 02:59:17;;;;;;;7.30;5.00;;;;;;;8.63;100.00;97355.02;110156;1243;59735;-75
2023/05/22 03:01:48;;;;;;;;;;;;;;;8.60;100.00;97354.21;110235;1241;71390;-75
2023/05/22 03:04:19;;;;;;;6.30;4.80;;;;;;;8.56;100.00;97350.11;110205;1241;69099;-76
2023/05/22 03:06:50;;;;;;;6.70;4.80;;;;;;;8.54;100.00;97347.29;110210;1242;68579;-76
2023/05/22 03:09:20;;;;;;;5.80;4.70;;;;;;;8.54;98.98;97349.00;110190;1240;59756;-76
2023/05/22 03:11:53;;;;;;;7.40;4.70;;;;;;;8.57;98.86;97348.62;110120;1244;59694;-74
2023/05/22 03:14:23;;;;;;;7.80;5.10;;;;;;;8.58;99.40;97349.48;110260;1240;71345;-75
2023/05/22 03:16:54;;;;;;;6.10;4.80;;;;;;;8.56;99.76;97345.20;110154;1243;67826;-76
2023/05/22 03:19:24;;;;;;;7.20;5.30;;;;;;;8.58;98.68;97344.76;110222;1241;68505;-75
2023/05/22 03:21:55;;;;;;;7.30;4.80;;;;;;;8.58;98.65;97344.05;110138;1241;59770;-75
2023/05/22 03:24:26;;;;;;;6.40;5.30;;;;;;;8.56;98.22;97343.49;110149;1243;59731;-75
2023/05/22 03:26:56;;;;;;;6.60;5.50;;;;;;;8.55;99.21;97345.12;110141;1241;71388;-75
2023/05/22 03:29:53;;;;;;;8.20;5.40;;;;;;;8.55;98.65;97349.31;110222;1240;68780;-76
2023/05/22 03:32:22;;;;;;;8.40;5.30;;;;;;;8.53;99.96;97349.94;110185;1242;69326;-75
2023/05/22 03:34:53;;;;;;;6.10;5.30;;;;;;;8.49;100.00;97347.61;110153;1242;60199;-75
2023/05/22 03:37:22;;;;;;;6.40;5.40;;;;;;;8.49;100.00;97350.05;110182;1242;59640;-75
2023/05/22 03:39:53;;;;;;;6.50;4.80;;;;;;;8.51;99.22;97350.23;110182;1241;71425;-74
2023/05/22 03:42:27;;;;;;;6.10;4.80;;;;;;;8.55;99.31;97350.88;110194;1242;69184;-75
2023/05/22 03:44:57;;;;;;;5.50;4.50;;;;;;;8.57;100.00;97354.02;110127;1245;68734;-75
2023/05/22 03:47:28;;;;;;;7.00;4.90;;;;;;;8.59;100.00;97353.23;110154;1244;59737;-76
2023/05/22 03:49:59;;;;;;;6.10;4.80;;;;;;;8.63;100.00;97356.42;110222;1242;59697;-75
2023/05/22 03:52:29;;;;;;;7.30;4.90;;;;;;;8.68;100.00;97357.64;110204;1241;69693;-77
2023/05/22 03:55:00;;;;;;;7.40;4.70;;;;;;;8.75;100.00;97359.83;110266;1241;69201;-73
2023/05/22 03:57:30;;;;;;;5.90;4.90;;;;;;;8.82;100.00;97360.19;110215;1242;69180;-75
2023/05/22 04:00:08;;;;;;;;;;;;;;;8.90;100.00;97361.75;110244;1242;59762;-75
2023/05/22 04:02:43;;;;;;;5.80;4.70;;;;;;;8.96;100.00;97359.42;110273;1242;59675;-76
2023/05/22 04:05:14;;;;;;;5.30;4.20;;;;;;;9.02;100.00;97359.71;110281;1240;71810;-76
2023/05/22 04:07:45;;;;;;;5.90;4.10;;;;;;;9.08;100.00;97356.84;110454;1243;69119;-75
2023/05/22 04:10:15;;;;;;;5.30;4.70;;;;;;;9.17;100.00;97356.74;110293;1241;68613;-77
2023/05/22 04:12:44;;;;;;;5.10;4.00;;;;;;;9.26;100.00;97353.94;110247;1240;60047;-76
2023/05/22 04:15:14;;;;;;;6.60;4.50;;;;;;;9.36;100.00;97353.58;110268;1242;59639;-77
2023/05/22 04:17:43;;;;;;;;;;;;;;;9.54;100.00;97354.27;110264;1242;71795;-77
2023/05/22 04:20:13;;;;;;;6.70;4.80;;;;;;;9.69;99.93;97355.46;110194;1240;69073;-76
2023/05/22 04:22:44;;;;;;;6.50;5.40;;;;;;;9.87;99.59;97350.75;110249;1242;68413;-76
2023/05/22 04:25:14;;;;;;;5.40;4.90;;;;;;;9.98;97.81;97351.02;110268;1242;59666;-76
2023/05/22 04:27:46;;;;;;;9.20;6.40;;;;;;;10.02;96.83;97352.42;110195;1241;59740;-75
2023/05/22 04:30:17;;;;;;;7.80;5.60;;;;;;;10.07;98.18;97349.44;110284;1242;71972;-77
2023/05/22 04:32:46;;;;;;;6.30;4.90;;;;;;;10.13;99.11;97343.46;110279;1242;68476;-76
2023/05/22 04:35:17;;;;;;;7.90;5.40;;;;;;;10.25;99.09;97344.92;110252;1242;68666;-75
2023/05/22 04:37:46;;;;;;;6.50;5.20;;;;;;;10.45;98.29;97344.33;110217;1242;59684;-75
2023/05/22 04:40:16;;;;;;;6.20;4.80;;;;;;;10.67;96.58;97346.85;110253;1242;59674;-74
2023/05/22 04:42:45;;;;;;;7.20;5.20;;;;;;;10.89;95.86;97345.90;110144;1244;71389;-75
2023/05/22 04:45:14;;;;;;;6.30;5.30;;;;;;;11.10;94.50;97346.75;110160;1244;70421;-76
2023/05/22 04:47:43;;;;;;;7.40;5.40;;;;;;;11.33;93.01;97341.53;110214;1241;69054;-74
2023/05/22 04:50:13;;;;;;;9.60;5.90;;;;;;;11.55;92.17;97337.58;110214;1242;59688;-75
2023/05/22 04:52:42;;;;;;;7.20;5.20;;;;;;;11.76;91.37;97336.98;110238;1241;59751;-75
2023/05/22 04:55:12;;;;;;;6.40;4.20;;;;;;;11.98;89.42;97335.11;110207;1241;70598;-75
2023/05/22 04:57:43;;;;;;;5.50;4.50;;;;;;;12.21;89.31;97340.77;110267;1242;69803;-76
2023/05/22 05:00:15;;;;;;;6.30;4.30;;;;;;;12.41;85.84;97334.38;110253;1242;70070;-74
2023/05/22 05:02:47;;;;;;;6.10;4.10;;;;;;;12.67;84.36;97338.76;110154;1240;59690;-75
2023/05/22 05:05:16;;;;;;;6.10;4.50;;;;;;;12.99;80.54;97342.95;110242;1242;59697;-74
2023/05/22 05:07:48;;;;;;;6.20;5.50;;;;;;;13.35;81.55;97347.21;110226;1241;72365;-74
2023/05/22 05:10:18;;;;;;;6.90;6.20;;;;;;;13.72;81.34;97350.42;110262;1240;69866;-75
2023/05/22 05:12:47;;;;;;;8.30;6.00;;;;;;;14.13;79.63;97346.42;110158;1245;69710;-75
2023/05/22 05:15:19;;;;;;;6.30;4.70;;;;;;;14.59;79.92;97349.35;110204;1247;59735;-75
2023/05/22 05:17:48;;;;;;;7.10;4.80;;;;;;;14.98;76.38;97347.54;110218;1243;59722;-75
2023/05/22 05:20:17;;;;;;;6.20;4.30;;;;;;;15.32;72.96;97346.55;110220;1242;71313;-74
2023/05/22 05:22:47;;;;;;;7.30;4.70;;;;;;;15.63;71.98;97345.43;110160;1241;68422;-72
2023/05/22 05:25:17;;;;;;;7.70;4.60;;;;;;;15.82;67.77;97346.61;110161;1245;69283;-75
2023/05/22 05:27:47;;;;;;;5.90;4.80;;;;;;;16.12;68.35;97343.88;110150;1245;59753;-75
2023/05/22 05:30:17;;;;;;;6.50;4.70;;;;;;;16.40;67.39;97344.23;110196;1241;59708;-74
2023/05/22 05:33:11;;;;;;;5.10;4.10;;;;;;;16.67;68.23;97339.91;110151;1240;71732;-76
2023/05/22 05:35:52;;;;;;;9.10;4.80;;;;;;;16.84;67.24;97341.31;110226;1242;69497;-76
2023/05/22 05:38:25;;;;;;;6.50;4.90;;;;;;;16.91;65.71;97342.91;110190;1241;69938;-75
2023/05/22 05:40:55;;;;;;;5.90;4.50;;;;;;;17.06;64.97;97347.05;110248;1242;59739;-75
2023/05/22 05:43:24;;;;;;;6.70;4.50;;;;;;;17.24;63.98;97346.24;110172;1241;59729;-74
2023/05/22 05:45:56;;;;;;;6.40;4.40;;;;;;;17.35;65.26;97345.21;110169;1242;71499;-76
2023/05/22 05:48:25;;;;;;;;;;;;;;;17.43;64.60;97344.86;110195;1242;69810;-76
2023/05/22 05:50:54;;;;;;;4.30;3.20;;;;;;;17.63;65.23;97342.64;110101;1241;69256;-76
2023/05/22 05:53:24;;;;;;;6.30;3.40;;;;;;;17.90;64.82;97342.70;110200;1242;59811;-76
2023/05/22 05:55:58;;;;;;;4.10;3.00;;;;;;;18.16;61.67;97336.77;110174;1243;59627;-75
2023/05/22 05:58:30;;;;;;;4.10;3.10;;;;;;;18.38;57.62;97333.14;110253;1242;70490;-75
2023/05/22 06:01:26;;;;;;;3.30;2.80;;;;;;;18.69;59.03;97330.11;110022;1242;69913;-73
2023/05/22 06:03:55;;;;;;;4.20;3.00;;;;;;;19.05;56.14;97327.71;110194;1242;69259;-73
2023/05/22 06:06:30;;;;;;;3.60;2.80;;;;;;;19.50;57.26;97327.91;110213;1240;59754;-73
2023/05/22 06:09:24;;;;;;;5.00;2.80;;;;;;;19.95;52.84;97328.48;110192;1242;59669;-73
2023/05/22 06:12:20;;;;;;;4.40;2.70;;;;;;;20.30;50.23;97324.16;110218;1242;70506;-74
2023/05/22 06:14:49;;;;;;;3.60;2.60;;;;;;;20.61;50.47;97319.54;110230;1243;69216;-74
2023/05/22 06:17:19;;;;;;;3.30;2.60;;;;;;;20.90;46.08;97321.05;110131;1244;69074;-73
2023/05/22 06:19:48;;;;;;;4.10;3.00;;;;;;;21.04;46.23;97320.14;110196;1240;59737;-75
2023/05/22 06:22:17;;;;;;;4.90;3.60;;;;;;;21.22;46.73;97319.58;110168;1243;59714;-72
2023/05/22 06:24:48;;;;;;;3.90;2.70;;;;;;;21.43;46.28;97321.19;110173;1243;71338;-73
2023/05/22 06:27:26;;;;;;;5.20;2.50;;;;;;;21.67;44.93;97324.35;110147;1244;69802;-73
2023/05/22 06:29:55;;;;;;;4.20;2.90;;;;;;;22.23;46.78;97319.70;110354;1243;69292;-74
2023/05/22 06:32:28;;;;;;;4.40;2.60;;;;;;;22.36;42.79;97317.13;110311;1242;59685;-76
2023/05/22 06:35:00;;;;;;;5.10;2.90;;;;;;;22.41;40.29;97315.47;110231;1242;59708;-74
2023/05/22 06:37:31;;;;;;;3.90;2.40;;;;;;;22.61;39.64;97314.84;110203;1241;71347;-74
2023/05/22 06:40:01;;;;;;;5.80;2.80;;;;;;;23.00;42.33;97313.23;110285;1240;68501;-71
2023/05/22 06:43:05;;;;;;;4.30;2.60;;;;;;;23.16;39.86;97314.48;110238;1241;69723;-73
2023/05/22 06:45:41;;;;;;;3.80;2.40;;;;;;;23.47;39.91;97315.61;110240;1240;59671;-73
2023/05/22 06:48:24;;;;;;;6.90;2.40;;;;;;;23.65;38.58;97318.56;110258;1242;59675;-72
2023/05/22 06:51:04;;;;;;;4.40;2.30;;;;;;;23.75;35.97;97317.61;110303;1240;71724;-73
2023/05/22 06:53:36;;;;;;;4.60;2.70;;;;;;;23.57;34.49;97316.69;110338;1241;69526;-72
2023/05/22 06:56:07;;;;;;;4.30;2.10;;;;;;;23.46;32.65;97311.45;110246;1241;69252;-73
2023/05/22 06:58:48;;;;;;;3.00;2.10;;;;;;;23.76;35.26;97314.20;110355;1242;59675;-74
2023/05/22 07:01:18;;;;;;;4.10;2.20;;;;;;;24.15;34.85;97314.68;110207;1244;59708;-72
2023/05/22 07:04:00;;;;;;;3.80;2.10;;;;;;;24.23;33.98;97308.37;110188;1241;71325;-73
2023/05/22 07:06:48;;;;;;;3.40;2.10;;;;;;;24.19;34.77;97310.10;110187;1242;68756;-73
2023/05/22 07:09:19;;;;;;;3.90;2.20;;;;;;;23.67;34.98;97307.17;110188;1242;69280;-72
2023/05/22 07:11:49;;;;;;;3.80;2.50;;;;;;;23.87;35.48;97308.73;110273;1242;59675;-72
2023/05/22 07:14:18;;;;;;;3.30;2.40;;;;;;;24.28;35.02;97306.88;110254;1242;59665;-73
2023/05/22 07:16:47;;;;;;;3.70;2.10;;;;;;;24.50;35.27;97304.89;110145;1240;71958;-72
2023/05/22 07:19:22;;;;;;;3.20;2.00;;;;;;;24.40;34.38;97304.17;110274;1241;68805;-73
2023/05/22 07:21:50;;;;;;;;;;;;;;;24.06;34.51;97305.02;110133;1243;69582;-73
2023/05/22 07:24:20;;;;;;;4.30;2.20;;;;;;;24.23;34.28;97303.70;110153;1241;59759;-72
2023/05/22 07:26:49;;;;;;;3.20;1.80;;;;;;;24.73;35.09;97295.42;110277;1245;59689;-74
2023/05/22 07:29:19;;;;;;;3.40;2.30;;;;;;;25.04;33.77;97298.56;110285;1241;71386;-74
2023/05/22 07:31:52;;;;;;;5.20;2.30;;;;;;;25.30;34.17;97297.77;110219;1241;68802;-73
2023/05/22 07:34:28;;;;;;;4.10;2.40;;;;;;;25.51;34.82;97297.52;110278;1241;68676;-73
2023/05/22 07:36:58;;;;;;;4.20;2.20;;;;;;;25.71;34.44;97295.84;110176;1244;59676;-72
2023/05/22 07:39:27;;;;;;;4.20;2.30;;;;;;;25.82;32.49;97293.80;110383;1242;59675;-74
2023/05/22 07:41:57;;;;;;;4.40;2.60;;;;;;;26.17;33.36;97294.57;110134;1241;71395;-73
2023/05/22 07:44:28;;;;;;;3.60;2.30;;;;;;;26.02;33.09;97288.44;110205;1241;69492;-74
2023/05/22 07:46:58;;;;;;;2.60;2.10;;;;;;;26.00;33.12;97285.21;110197;1241;69092;-74
2023/05/22 07:49:29;;;;;;;3.80;2.20;;;;;;;26.01;33.25;97287.47;110119;1243;59685;-75
2023/05/22 07:51:58;;;;;;;3.70;2.40;;;;;;;26.36;33.18;97280.58;110259;1241;59663;-75
2023/05/22 07:54:29;;;;;;;4.60;2.50;;;;;;;26.07;33.38;97283.12;110235;1242;71388;-73
2023/05/22 07:57:02;;;;;;;2.90;1.90;;;;;;;26.24;33.14;97279.95;110151;1242;69747;-73
2023/05/22 07:59:36;;;;;;;6.40;2.60;;;;;;;26.24;32.95;97278.70;110075;1241;68621;-72
2023/05/22 08:02:07;;;;;;;5.30;2.20;;;;;;;25.93;31.72;97281.27;110197;1242;59633;-72
2023/05/22 08:04:36;;;;;;;3.70;2.20;;;;;;;26.21;32.96;97277.45;110165;1242;60166;-73
2023/05/22 08:07:07;;;;;;;3.00;1.90;;;;;;;26.73;32.71;97273.00;110117;1244;71372;-70
2023/05/22 08:09:36;;;;;;;2.80;1.70;;;;;;;27.27;32.69;97272.73;110172;1242;68714;-72
2023/05/22 08:12:07;;;;;;;3.30;2.10;;;;;;;27.25;31.08;97274.86;110160;1242;69766;-70
2023/05/22 08:14:36;;;;;;;2.60;2.10;;;;;;;26.95;30.23;97275.14;110134;1240;59821;-73
2023/05/22 08:17:05;;;;;;;;;;;;;;;26.65;31.28;97273.01;110215;1242;59664;-71
2023/05/22 08:19:34;;;;;;;3.20;2.10;;;;;;;26.46;30.54;97276.63;110220;1240;71849;-71
2023/05/22 08:22:04;;;;;;;3.50;2.40;;;;;;;26.41;30.52;97276.77;110150;1240;69392;-73
2023/05/22 08:24:34;;;;;;;3.90;2.30;;;;;;;26.23;30.82;97271.64;110129;1240;68326;-72
2023/05/22 08:27:05;;;;;;;3.60;1.70;;;;;;;26.53;31.12;97267.02;110175;1242;59689;-72
2023/05/22 08:29:35;;;;;;;4.50;2.40;;;;;;;26.97;30.80;97269.14;110227;1241;59630;-70
2023/05/22 08:32:05;;;;;;;3.70;2.30;;;;;;;27.26;31.08;97266.47;110231;1241;71574;-71
2023/05/22 08:34:34;;;;;;;4.10;2.10;;;;;;;26.99;29.58;97264.12;110167;1241;69209;-70
2023/05/22 08:37:04;;;;;;;3.20;2.00;;;;;;;26.71;29.84;97263.89;110194;1240;68869;-71
2023/05/22 08:39:33;;;;;;;3.70;2.10;;;;;;;26.97;30.65;97259.65;110117;1242;59652;-71
2023/05/22 08:42:04;;;;;;;3.40;2.00;;;;;;;27.12;30.06;97258.66;110190;1242;59672;-71
2023/05/22 08:44:32;;;;;;;3.50;2.10;;;;;;;27.46;29.63;97260.95;110186;1242;71222;-72
2023/05/22 08:47:04;;;;;;;;;;;;;;;28.00;29.59;97262.42;110141;1240;68580;-73
2023/05/22 08:49:33;;;;;;;4.20;2.40;;;;;;;28.10;29.08;97258.06;110166;1242;69895;-73
2023/05/22 08:52:15;;;;;;;3.30;2.30;;;;;;;28.17;29.64;97253.85;110154;1242;59743;-71
2023/05/22 08:54:51;;;;;;;4.60;2.30;;;;;;;28.70;28.36;97254.63;110174;1240;59742;-72
2023/05/22 08:57:22;;;;;;;4.10;2.00;;;;;;;28.65;27.54;97249.73;110122;1241;70728;-70
2023/05/22 08:59:51;;;;;;;4.00;2.20;;;;;;;28.64;27.64;97252.07;110199;1241;68521;-71
2023/05/22 09:02:20;;;;;;;3.80;2.00;;;;;;;28.76;27.11;97250.68;110172;1241;68515;-73
2023/05/22 09:04:50;;;;;;;3.60;2.10;;;;;;;28.71;26.83;97253.03;110152;1242;59770;-71
2023/05/22 09:07:20;;;;;;;2.50;1.80;;;;;;;28.36;28.03;97254.53;110193;1242;60126;-71
2023/05/22 09:09:51;;;;;;;4.70;2.20;;;;;;;28.52;27.72;97248.68;110179;1242;71961;-71
2023/05/22 09:12:24;;;;;;;3.20;1.70;;;;;;;28.90;26.32;97250.55;110144;1242;69109;-73
2023/05/22 09:14:54;;;;;;;3.40;2.10;;;;;;;28.80;26.46;97248.27;110145;1240;68313;-71
2023/05/22 09:17:25;;;;;;;3.30;2.00;;;;;;;28.95;26.46;97245.64;110200;1241;59674;-69
2023/05/22 09:19:58;;;;;;;3.20;1.80;;;;;;;29.28;26.67;97246.52;110213;1247;59734;-70
2023/05/22 09:22:37;;;;;;;4.20;2.50;;;;;;;28.97;25.90;97236.57;110132;1242;72019;-71
2023/05/22 09:25:07;;;;;;;3.90;2.00;;;;;;;28.90;26.22;97238.02;110177;1240;68295;-72
2023/05/22 09:27:36;;;;;;;3.90;2.40;;;;;;;29.15;25.91;97237.77;110159;1241;70357;-70
2023/05/22 09:30:08;;;;;;;2.80;2.20;;;;;;;29.33;26.04;97234.88;110142;1245;59749;-70
2023/05/22 09:32:37;;;;;;;3.60;2.30;;;;;;;29.29;26.09;97235.40;110186;1242;59741;-70
2023/05/22 09:35:06;;;;;;;4.50;2.70;;;;;;;29.20;25.79;97234.54;110177;1241;71264;-70
2023/05/22 09:37:36;;;;;;;3.10;1.90;;;;;;;29.03;25.25;97232.73;110225;1241;69197;-70
2023/05/22 09:40:12;;;;;;;3.20;2.00;;;;;;;29.28;25.67;97230.25;110188;1245;70085;-68
2023/05/22 09:42:44;;;;;;;4.30;2.30;;;;;;;28.97;26.04;97225.23;110211;1241;59735;-71
2023/05/22 09:45:18;;;;;;;2.70;2.10;;;;;;;29.28;25.88;97223.78;110242;1242;59744;-73
2023/05/22 09:47:50;;;;;;;2.90;1.90;;;;;;;29.73;25.59;97220.09;110218;1242;70398;-70
2023/05/22 09:50:19;;;;;;;3.80;2.20;;;;;;;29.90;24.83;97213.31;110221;1241;68375;-71
2023/05/22 09:52:50;;;;;;;3.10;2.20;;;;;;;29.77;24.28;97211.30;110195;1243;69075;-73
2023/05/22 09:55:22;;;;;;;3.70;2.00;;;;;;;29.48;24.85;97209.59;110247;1240;59689;-72
2023/05/22 09:57:53;;;;;;;3.10;1.90;;;;;;;28.96;26.08;97208.85;110206;1241;59679;-72
2023/05/22 10:00:23;;;;;;;4.70;1.70;;;;;;;28.85;24.60;97208.79;110194;1242;71373;-72
2023/05/22 10:02:57;;;;;;;3.50;2.50;;;;;;;28.55;25.43;97207.35;110188;1248;69852;-70
2023/05/22 10:05:30;;;;;;;3.00;1.60;;;;;;;28.41;25.64;97202.89;110153;1241;68973;-73
2023/05/22 10:08:12;;;;;;;2.40;1.80;;;;;;;28.24;26.49;97205.16;110210;1240;59731;-73
2023/05/22 10:10:44;;;;;;;5.30;2.20;;;;;;;28.55;26.32;97200.95;110199;1243;59753;-74
2023/05/22 10:13:15;;;;;;;3.20;1.90;;;;;;;28.72;26.24;97203.59;110236;1240;71362;-73
2023/05/22 10:15:46;;;;;;;3.70;2.10;;;;;;;28.78;26.21;97202.77;110182;1242;68432;-73
2023/05/22 10:18:16;;;;;;;3.20;2.00;;;;;;;29.02;26.61;97204.14;110259;1242;69842;-73
2023/05/22 10:20:48;;;;;;;3.10;2.00;;;;;;;29.25;26.46;97198.91;110247;1242;59692;-73
2023/05/22 10:23:18;;;;;;;3.70;2.00;;;;;;;29.23;25.96;97200.64;110228;1240;59695;-72
2023/05/22 10:25:48;;;;;;;3.80;2.20;;;;;;;29.53;24.37;97200.88;110204;1241;71986;-73
2023/05/22 10:28:26;;;;;;;2.70;2.10;;;;;;;29.23;24.83;97199.77;110191;1241;69258;-72
2023/05/22 10:31:13;;;;;;;3.20;2.20;;;;;;;28.73;25.31;97200.48;110258;1244;69359;-73
2023/05/22 10:33:50;;;;;;;3.20;2.00;;;;;;;28.98;24.04;97197.70;110228;1242;59634;-73
2023/05/22 10:36:31;;;;;;;5.00;1.90;;;;;;;28.48;24.59;97188.98;110201;1241;59744;-73
2023/05/22 10:39:34;;;;;;;4.20;2.00;;;;;;;28.20;25.84;97185.30;110242;1242;71180;-72
2023/05/22 10:42:03;;;;;;;3.90;2.20;;;;;;;28.06;26.41;97185.90;110223;1242;68481;-72
2023/05/22 10:44:32;;;;;;;2.30;2.00;;;;;;;28.33;26.09;97178.94;110207;1242;69138;-71
2023/05/22 10:47:08;;;;;;;;;;;;;;;28.41;26.08;97177.67;110231;1242;59691;-72
2023/05/22 10:49:48;;;;;;;2.30;1.80;;;;;;;28.35;24.20;97174.13;110190;1241;59714;-70
2023/05/22 10:52:20;;;;;;;3.70;2.30;;;;;;;28.41;25.45;97174.45;110230;1242;71837;-71
2023/05/22 10:54:53;;;;;;;3.30;2.30;;;;;;;28.34;24.90;97173.22;110209;1243;68312;-72
2023/05/22 10:57:23;;;;;;;4.20;2.20;;;;;;;28.35;26.94;97168.11;110148;1241;69056;-71
2023/05/22 11:00:08;;;;;;;2.50;1.90;;;;;;;28.31;26.76;97164.09;110216;1242;59741;-72
2023/05/22 11:02:40;;;;;;;2.40;2.00;;;;;;;28.60;25.90;97166.41;110240;1242;59737;-73
2023/05/22 11:05:20;;;;;;;3.40;2.00;;;;;;;28.76;25.39;97167.05;110261;1242;72418;-73
2023/05/22 11:07:50;;;;;;;3.80;2.30;;;;;;;29.08;25.22;97164.73;110244;1241;69259;-70
2023/05/22 11:10:25;;;;;;;3.20;1.90;;;;;;;29.21;25.55;97163.09;110231;1242;70111;-73
2023/05/22 11:13:13;;;;;;;3.80;2.40;;;;;;;29.57;25.48;97154.53;110177;1245;60185;-74
2023/05/22 11:15:46;;;;;;;3.30;2.30;;;;;;;29.53;23.93;97154.82;110192;1241;59669;-73
2023/05/22 11:18:16;;;;;;;3.10;2.10;;;;;;;29.42;24.14;97153.06;110211;1242;71971;-72
2023/05/22 11:20:45;;;;;;;2.10;1.70;;;;;;;29.33;24.96;97151.72;110208;1242;69833;-72
2023/05/22 11:23:18;;;;;;;2.90;2.30;;;;;;;29.30;24.62;97154.88;110205;1242;67321;-72
2023/05/22 11:25:48;;;;;;;4.40;2.30;;;;;;;29.38;24.05;97152.84;110189;1242;59697;-73
2023/05/22 11:28:17;;;;;;;3.50;2.40;;;;;;;28.53;23.41;97149.29;110156;1244;59782;-71
2023/05/22 11:30:46;;;;;;;3.70;2.50;;;;;;;28.26;24.46;97138.87;110220;1244;72015;-72
2023/05/22 11:33:17;;;;;;;3.70;2.60;;;;;;;28.24;24.89;97135.70;110206;1242;69214;-73
2023/05/22 11:35:46;;;;;;;3.40;2.40;;;;;;;28.23;24.76;97131.05;110200;1242;69290;-72
2023/05/22 11:38:16;;;;;;;4.40;2.50;;;;;;;28.13;24.89;97128.88;110192;1242;59751;-71
2023/05/22 11:40:50;;;;;;;2.70;2.00;;;;;;;27.99;25.44;97126.91;110274;1241;59750;-71
2023/05/22 11:43:31;;;;;;;3.20;2.30;;;;;;;28.00;25.34;97123.80;110279;1242;71249;-72
2023/05/22 11:46:09;;;;;;;4.50;2.60;;;;;;;27.51;25.00;97122.84;109883;1242;69106;-72
2023/05/22 11:48:40;;;;;;;3.80;2.40;;;;;;;27.26;26.11;97118.27;110163;1242;68974;-72
2023/05/22 11:51:10;;;;;;;4.50;2.60;;;;;;;27.22;26.28;97120.72;110160;1242;59692;-72
2023/05/22 11:53:40;;;;;;;3.20;1.90;;;;;;;27.44;26.34;97121.57;110196;1242;59673;-73
2023/05/22 11:56:10;;;;;;;2.60;2.00;;;;;;;27.55;26.13;97119.71;110221;1242;70620;-72